createdAt,value
2023-03-30T00:01:00.966Z,10.50
2023-03-30T00:03:30.388Z,10.50
2023-03-30T00:06:03.384Z,10.50
2023-03-30T00:08:30.123Z,10.50
2023-03-30T00:11:06.308Z,10.60
2023-03-30T00:13:33.994Z,10.50
2023-03-30T00:16:01.111Z,10.50
2023-03-30T00:18:29.831Z,10.50
2023-03-30T00:20:58.412Z,10.50
2023-03-30T00:23:25.467Z,10.50
2023-03-30T00:25:52.192Z,10.50
2023-03-30T00:28:21.317Z,10.50
2023-03-30T00:30:50.171Z,10.50
2023-03-30T00:33:16.883Z,10.40
2023-03-30T00:35:43.696Z,10.40
2023-03-30T00:38:10.429Z,10.40
2023-03-30T00:40:42.217Z,10.40
2023-03-30T00:43:11.681Z,10.40
2023-03-30T00:45:38.551Z,10.30
2023-03-30T00:48:11.170Z,10.40
2023-03-30T00:50:40.620Z,10.40
2023-03-30T00:53:11.340Z,10.30
2023-03-30T00:55:39.870Z,10.30
2023-03-30T00:58:09.742Z,10.30
2023-03-30T01:00:43.366Z,10.30
2023-03-30T01:03:19.377Z,10.30
2023-03-30T01:05:48.917Z,10.30
2023-03-30T01:08:18.387Z,10.30
2023-03-30T01:10:46.389Z,10.30
2023-03-30T01:13:13.973Z,10.30
2023-03-30T01:15:46.847Z,10.30
2023-03-30T01:18:13.581Z,10.30
2023-03-30T01:20:59.682Z,10.30
2023-03-30T01:23:47.015Z,10.30
2023-03-30T01:26:26.136Z,10.30
2023-03-30T01:28:57.654Z,10.30
2023-03-30T01:31:27.445Z,10.30
2023-03-30T01:34:22.772Z,10.20
2023-03-30T01:37:09.380Z,10.20
2023-03-30T01:39:50.907Z,10.20
2023-03-30T01:42:31.640Z,10.10
2023-03-30T01:45:14.363Z,10.10
2023-03-30T01:47:50.522Z,10.10
2023-03-30T01:50:24.545Z,10.10
2023-03-30T01:52:53.778Z,10.10
2023-03-30T01:55:26.102Z,10.10
2023-03-30T01:58:13.181Z,10.10
2023-03-30T02:00:43.873Z,10.10
2023-03-30T02:03:17.200Z,10.10
2023-03-30T02:05:45.387Z,10.10
2023-03-30T02:08:14.337Z,10.10
2023-03-30T02:10:44.912Z,10.10
2023-03-30T02:13:12.886Z,10.10
2023-03-30T02:15:44.132Z,10.10
2023-03-30T02:18:13.435Z,10.10
2023-03-30T02:20:42.227Z,10.10
2023-03-30T02:23:08.995Z,10.10
2023-03-30T02:25:38.338Z,10.10
2023-03-30T02:28:08.863Z,10.10
2023-03-30T02:30:37.033Z,10.20
2023-03-30T02:33:04.651Z,10.20
2023-03-30T02:35:34.758Z,10.10
2023-03-30T02:38:03.920Z,10.20
2023-03-30T02:40:37.308Z,10.10
2023-03-30T02:43:13.458Z,10.20
2023-03-30T02:45:46.530Z,10.10
2023-03-30T02:48:13.742Z,10.20
2023-03-30T02:50:47.014Z,10.10
2023-03-30T02:53:56.639Z,10.20
2023-03-30T02:56:49.490Z,10.20
2023-03-30T02:59:23.293Z,10.20
2023-03-30T03:01:51.113Z,10.10
2023-03-30T03:04:18.836Z,10.20
2023-03-30T03:07:03.865Z,10.20
2023-03-30T03:09:31.885Z,10.20
2023-03-30T03:12:00.156Z,10.20
2023-03-30T03:14:34.441Z,10.20
2023-03-30T03:17:01.312Z,10.10
2023-03-30T03:19:33.695Z,10.10
2023-03-30T03:22:01.243Z,10.10
2023-03-30T03:24:33.855Z,10.10
2023-03-30T03:27:20.674Z,10.10
2023-03-30T03:30:10.816Z,10.10
2023-03-30T03:32:44.037Z,10.10
2023-03-30T03:35:11.247Z,10.10
2023-03-30T03:37:38.464Z,10.10
2023-03-30T03:40:08.114Z,10.10
2023-03-30T03:42:35.999Z,10.10
2023-03-30T03:45:09.966Z,10.10
2023-03-30T03:47:50.361Z,10.10
2023-03-30T03:50:18.646Z,10.10
2023-03-30T03:52:45.856Z,10.10
2023-03-30T03:55:14.971Z,10.20
2023-03-30T03:57:44.934Z,10.20
2023-03-30T04:00:17.572Z,10.20
2023-03-30T04:02:49.805Z,10.20
2023-03-30T04:05:16.563Z,10.20
2023-03-30T04:07:46.732Z,10.10
2023-03-30T04:10:14.315Z,10.10
2023-03-30T04:12:51.508Z,10.10
2023-03-30T04:15:32.171Z,10.10
2023-03-30T04:18:22.074Z,10.10
2023-03-30T04:21:14.144Z,10.00
2023-03-30T04:24:12.041Z,10.00
2023-03-30T04:27:16.958Z,10.00
2023-03-30T04:30:06.783Z,10.00
2023-03-30T04:33:02.642Z,10.00
2023-03-30T04:35:58.106Z,10.00
2023-03-30T04:38:42.856Z,10.00
2023-03-30T04:41:41.836Z,10.00
2023-03-30T04:44:27.540Z,10.00
2023-03-30T04:47:03.901Z,10.00
2023-03-30T04:49:51.346Z,10.00
2023-03-30T04:52:40.922Z,10.00
2023-03-30T04:55:11.725Z,9.90
2023-03-30T04:58:17.325Z,9.90
2023-03-30T05:01:03.830Z,9.90
2023-03-30T05:03:49.815Z,10.00
2023-03-30T05:06:35.576Z,10.00
2023-03-30T05:09:25.669Z,10.00
2023-03-30T05:12:07.051Z,10.00
2023-03-30T05:15:02.990Z,10.00
2023-03-30T05:17:59.222Z,10.00
2023-03-30T05:20:41.401Z,10.00
2023-03-30T05:23:24.489Z,10.10
2023-03-30T05:25:51.362Z,10.10
2023-03-30T05:28:44.189Z,10.10
2023-03-30T05:31:21.995Z,10.10
2023-03-30T05:34:03.210Z,10.10
2023-03-30T05:36:55.885Z,10.00
2023-03-30T05:39:34.802Z,10.10
2023-03-30T05:42:14.143Z,10.00
2023-03-30T05:44:59.005Z,10.00
2023-03-30T05:47:44.210Z,10.00
2023-03-30T05:50:26.979Z,10.00
2023-03-30T05:53:02.980Z,10.10
2023-03-30T05:56:01.165Z,10.00
2023-03-30T05:58:47.033Z,10.10
2023-03-30T06:01:32.063Z,10.10
2023-03-30T06:03:59.441Z,10.10
2023-03-30T06:06:27.257Z,10.20
2023-03-30T06:08:54.109Z,10.20
2023-03-30T06:11:26.094Z,10.10
2023-03-30T06:14:02.243Z,10.20
2023-03-30T06:16:29.954Z,10.20
2023-03-30T06:18:57.278Z,10.20
2023-03-30T06:21:27.490Z,10.20
2023-03-30T06:24:03.274Z,10.30
2023-03-30T06:26:35.410Z,10.30
2023-03-30T06:29:02.585Z,10.40
2023-03-30T06:31:30.115Z,10.40
2023-03-30T06:34:32.241Z,10.50
2023-03-30T06:37:00.015Z,10.60
2023-03-30T06:39:27.944Z,10.70
2023-03-30T06:41:57.164Z,10.70
2023-03-30T06:44:44.952Z,10.70
2023-03-30T06:47:15.274Z,10.80
2023-03-30T06:49:42.851Z,10.80
2023-03-30T06:52:33.741Z,10.80
2023-03-30T06:55:05.225Z,10.90
2023-03-30T06:57:32.524Z,10.90
2023-03-30T07:00:01.867Z,11.00
2023-03-30T07:02:51.986Z,11.00
2023-03-30T07:05:29.938Z,10.90
2023-03-30T07:08:10.462Z,11.00
2023-03-30T07:10:43.711Z,11.00
2023-03-30T07:13:13.713Z,11.00
2023-03-30T07:15:44.772Z,11.00
2023-03-30T07:18:11.879Z,11.10
2023-03-30T07:20:38.917Z,11.30
2023-03-30T07:23:16.902Z,11.40
2023-03-30T07:25:46.867Z,11.50
2023-03-30T07:28:19.982Z,11.50
2023-03-30T07:30:47.048Z,11.70
2023-03-30T07:33:15.237Z,11.80
2023-03-30T07:35:45.632Z,11.90
2023-03-30T07:38:14.951Z,12.00
2023-03-30T07:40:47.292Z,12.00
2023-03-30T07:43:15.365Z,12.00
2023-03-30T07:45:44.041Z,12.10
2023-03-30T07:48:17.126Z,12.10
2023-03-30T07:50:45.630Z,12.20
2023-03-30T07:53:17.292Z,12.20
2023-03-30T07:55:49.102Z,12.40
2023-03-30T07:58:24.420Z,12.70
2023-03-30T08:00:51.653Z,13.20
2023-03-30T08:03:39.175Z,13.70
2023-03-30T08:06:07.357Z,14.50
2023-03-30T08:08:40.966Z,15.20
2023-03-30T08:11:09.078Z,17.00
2023-03-30T08:13:37.324Z,18.50
2023-03-30T08:16:06.091Z,19.60
2023-03-30T08:18:33.138Z,20.70
2023-03-30T08:21:03.164Z,21.30
2023-03-30T08:23:32.902Z,21.80
2023-03-30T08:26:02.781Z,22.40
2023-03-30T08:28:30.862Z,22.10
2023-03-30T08:31:07.029Z,21.60
2023-03-30T08:33:37.211Z,22.40
2023-03-30T08:36:04.801Z,23.20
2023-03-30T08:38:35.055Z,23.60
2023-03-30T08:41:04.790Z,23.90
2023-03-30T08:43:38.109Z,23.70
2023-03-30T08:46:18.024Z,22.50
2023-03-30T08:48:47.980Z,22.30
2023-03-30T08:51:20.538Z,21.20
2023-03-30T08:53:49.031Z,20.50
2023-03-30T08:56:27.350Z,19.90
2023-03-30T08:59:18.773Z,19.50
2023-03-30T09:02:03.252Z,19.10
2023-03-30T09:04:57.731Z,18.40
2023-03-30T09:07:28.651Z,18.00
2023-03-30T09:09:57.322Z,17.70
2023-03-30T09:12:47.792Z,17.60
2023-03-30T09:15:32.175Z,17.30
2023-03-30T09:18:06.927Z,17.10
2023-03-30T09:20:37.389Z,17.00
2023-03-30T09:23:07.130Z,17.00
2023-03-30T09:25:51.061Z,17.10
2023-03-30T09:28:21.626Z,17.10
2023-03-30T09:30:53.257Z,17.10
2023-03-30T09:33:30.845Z,17.00
2023-03-30T09:36:15.024Z,16.90
2023-03-30T09:38:45.723Z,16.80
2023-03-30T09:41:31.967Z,16.60
2023-03-30T09:43:59.895Z,16.40
2023-03-30T09:46:26.853Z,16.30
2023-03-30T09:48:53.957Z,16.20
2023-03-30T09:51:30.553Z,16.30
2023-03-30T09:54:03.414Z,16.30
2023-03-30T09:56:47.055Z,16.30
2023-03-30T09:59:36.218Z,16.30
2023-03-30T10:02:32.215Z,16.20
2023-03-30T10:05:03.837Z,16.10
2023-03-30T10:07:37.829Z,16.10
2023-03-30T10:10:29.628Z,16.10
2023-03-30T10:13:16.467Z,16.00
2023-03-30T10:15:49.863Z,15.90
2023-03-30T10:18:27.663Z,15.80
2023-03-30T10:21:05.182Z,15.80
2023-03-30T10:23:34.299Z,15.70
2023-03-30T10:26:03.440Z,15.70
2023-03-30T10:28:33.850Z,15.70
2023-03-30T10:31:12.991Z,15.70
2023-03-30T10:33:50.813Z,15.60
2023-03-30T10:36:19.442Z,15.60
2023-03-30T10:38:49.720Z,15.70
2023-03-30T10:41:22.404Z,15.80
2023-03-30T10:43:50.908Z,16.00
2023-03-30T10:46:24.694Z,16.20
2023-03-30T10:48:52.082Z,16.30
2023-03-30T10:51:25.166Z,16.40
2023-03-30T10:54:07.445Z,16.50
2023-03-30T10:56:52.149Z,16.90
2023-03-30T10:59:58.029Z,17.80
2023-03-30T11:02:44.511Z,18.20
2023-03-30T11:05:32.943Z,17.90
2023-03-30T11:08:24.525Z,17.70
2023-03-30T11:10:55.558Z,17.30
2023-03-30T11:13:23.952Z,17.10
2023-03-30T11:16:07.854Z,17.00
2023-03-30T11:19:10.628Z,17.00
2023-03-30T11:21:58.182Z,17.20
2023-03-30T11:24:28.214Z,17.50
2023-03-30T11:27:17.102Z,17.70
2023-03-30T11:30:06.738Z,17.80
2023-03-30T11:32:46.757Z,17.70
2023-03-30T11:35:50.973Z,17.70
2023-03-30T11:38:28.276Z,17.90
2023-03-30T11:41:16.102Z,18.00
2023-03-30T11:43:43.256Z,17.90
2023-03-30T11:46:35.576Z,18.00
2023-03-30T11:49:14.429Z,18.00
2023-03-30T11:52:08.761Z,18.30
2023-03-30T11:55:11.328Z,18.70
2023-03-30T11:57:47.892Z,19.00
2023-03-30T12:00:23.721Z,18.80
2023-03-30T12:03:13.770Z,18.90
2023-03-30T12:05:53.235Z,18.90
2023-03-30T12:08:47.290Z,19.10
2023-03-30T12:11:29.913Z,20.30
2023-03-30T12:13:58.366Z,20.90
2023-03-30T12:16:36.962Z,22.00
2023-03-30T12:19:19.945Z,22.70
2023-03-30T12:22:09.501Z,23.40
2023-03-30T12:24:46.039Z,23.80
2023-03-30T12:27:12.952Z,23.30
2023-03-30T12:30:12.893Z,23.10
2023-03-30T12:33:01.617Z,22.90
2023-03-30T12:35:52.351Z,22.40
2023-03-30T12:38:38.099Z,21.80
2023-03-30T12:41:16.133Z,21.40
2023-03-30T12:44:03.083Z,21.00
2023-03-30T12:46:58.390Z,20.70
2023-03-30T12:49:52.759Z,20.50
2023-03-30T12:52:27.369Z,20.70
2023-03-30T12:55:12.559Z,21.40
2023-03-30T12:57:49.379Z,21.40
2023-03-30T13:01:07.030Z,20.90
2023-03-30T13:03:41.500Z,20.50
2023-03-30T13:06:35.878Z,20.10
2023-03-30T13:09:07.789Z,19.90
2023-03-30T13:12:21.094Z,20.00
2023-03-30T13:14:56.413Z,20.00
2023-03-30T13:17:27.075Z,19.80
2023-03-30T13:20:28.270Z,19.60
2023-03-30T13:23:03.714Z,19.40
2023-03-30T13:26:02.862Z,19.30
2023-03-30T13:28:48.811Z,19.20
2023-03-30T13:31:34.349Z,19.00
2023-03-30T13:34:07.373Z,19.00
2023-03-30T13:36:39.609Z,18.90
2023-03-30T13:39:54.098Z,18.80
2023-03-30T13:43:02.272Z,18.60
2023-03-30T13:45:40.133Z,18.40
2023-03-30T13:48:36.543Z,18.30
2023-03-30T13:51:04.442Z,18.10
2023-03-30T13:53:39.715Z,17.90
2023-03-30T13:56:11.688Z,17.70
2023-03-30T13:58:46.335Z,17.10
2023-03-30T14:01:21.841Z,16.60
2023-03-30T14:03:51.182Z,16.10
2023-03-30T14:06:23.340Z,15.70
2023-03-30T14:08:52.325Z,15.30
2023-03-30T14:11:22.212Z,15.10
2023-03-30T14:13:52.761Z,14.90
2023-03-30T14:16:22.019Z,14.80
2023-03-30T14:18:51.709Z,14.70
2023-03-30T14:21:24.106Z,14.70
2023-03-30T14:23:52.960Z,14.60
2023-03-30T14:26:19.688Z,14.60
2023-03-30T14:28:46.846Z,14.60
2023-03-30T14:31:21.108Z,14.50
2023-03-30T14:33:48.312Z,14.40
2023-03-30T14:36:16.635Z,14.30
2023-03-30T14:38:44.761Z,14.30
2023-03-30T14:41:17.449Z,14.20
2023-03-30T14:43:51.025Z,14.20
2023-03-30T14:46:18.077Z,14.20
2023-03-30T14:48:50.470Z,14.20
2023-03-30T14:51:23.964Z,14.20
2023-03-30T14:53:51.331Z,14.10
2023-03-30T14:56:18.458Z,14.10
2023-03-30T14:58:48.652Z,14.10
2023-03-30T15:01:20.645Z,14.10
2023-03-30T15:03:48.405Z,14.00
2023-03-30T15:06:19.764Z,14.00
2023-03-30T15:08:47.359Z,14.00
2023-03-30T15:11:16.766Z,14.00
2023-03-30T15:13:46.083Z,14.00
2023-03-30T15:16:18.344Z,14.00
2023-03-30T15:18:47.260Z,14.00
2023-03-30T15:21:14.512Z,14.00
2023-03-30T15:23:42.440Z,14.00
2023-03-30T15:26:09.741Z,13.90
2023-03-30T15:28:56.957Z,13.80
2023-03-30T15:31:26.928Z,13.80
2023-03-30T15:33:57.978Z,13.80
2023-03-30T15:36:26.414Z,13.90
2023-03-30T15:38:56.519Z,13.90
2023-03-30T15:41:24.627Z,13.90
2023-03-30T15:43:54.365Z,13.90
2023-03-30T15:46:23.573Z,13.90
2023-03-30T15:48:52.368Z,13.90
2023-03-30T15:51:26.926Z,13.80
2023-03-30T15:54:20.250Z,13.80
2023-03-30T15:56:56.597Z,13.80
2023-03-30T15:59:25.725Z,13.80
2023-03-30T16:01:58.163Z,13.80
2023-03-30T16:04:25.229Z,13.80
2023-03-30T16:06:56.719Z,13.70
2023-03-30T16:09:23.556Z,13.70
2023-03-30T16:11:50.507Z,13.80
2023-03-30T16:14:20.061Z,13.70
2023-03-30T16:16:49.250Z,13.80
2023-03-30T16:19:18.301Z,13.80
2023-03-30T16:21:45.760Z,13.80
2023-03-30T16:24:12.834Z,13.90
2023-03-30T16:26:39.855Z,14.10
2023-03-30T16:29:19.883Z,14.10
2023-03-30T16:31:47.007Z,14.00
2023-03-30T16:34:13.749Z,14.00
2023-03-30T16:36:44.002Z,14.00
2023-03-30T16:39:17.629Z,13.90
2023-03-30T16:41:44.899Z,13.80
2023-03-30T16:44:11.575Z,13.70
2023-03-30T16:46:39.296Z,13.70
2023-03-30T16:49:11.816Z,13.60
2023-03-30T16:51:40.993Z,13.60
2023-03-30T16:54:16.378Z,13.60
2023-03-30T16:56:50.346Z,13.70
2023-03-30T16:59:24.452Z,13.70
2023-03-30T17:01:51.760Z,13.70
2023-03-30T17:04:18.787Z,13.70
2023-03-30T17:06:45.604Z,13.70
2023-03-30T17:09:13.658Z,13.70
2023-03-30T17:11:40.476Z,13.70
2023-03-30T17:14:07.293Z,13.70
2023-03-30T17:16:36.538Z,13.70
2023-03-30T17:19:03.268Z,13.60
2023-03-30T17:21:30.095Z,13.60
2023-03-30T17:23:57.796Z,13.50
2023-03-30T17:26:27.740Z,13.40
2023-03-30T17:28:54.514Z,13.40
2023-03-30T17:31:23.651Z,13.30
2023-03-30T17:33:50.609Z,13.30
2023-03-30T17:36:17.416Z,13.20
2023-03-30T17:38:44.229Z,13.20
2023-03-30T17:41:15.348Z,13.10
2023-03-30T17:43:43.509Z,13.10
2023-03-30T17:46:12.515Z,13.00
2023-03-30T17:52:34.462Z,13.00
2023-03-30T17:55:01.258Z,12.90
2023-03-30T17:57:33.440Z,12.90
2023-03-30T18:00:03.164Z,12.90
2023-03-30T18:02:31.675Z,12.80
2023-03-30T18:04:58.519Z,12.80
2023-03-30T18:07:25.315Z,12.80
2023-03-30T18:09:52.122Z,12.80
2023-03-30T18:12:18.867Z,12.70
2023-03-30T18:15:31.768Z,12.70
2023-03-30T18:18:03.455Z,12.70
2023-03-30T18:20:32.210Z,12.70
2023-03-30T18:22:59.146Z,12.70
2023-03-30T18:25:32.385Z,12.60
2023-03-30T18:28:03.481Z,12.60
2023-03-30T18:30:38.001Z,12.60
2023-03-30T18:33:05.612Z,12.60
2023-03-30T18:35:34.360Z,12.60
2023-03-30T18:38:04.145Z,12.60
2023-03-30T18:40:37.947Z,12.50
2023-03-30T18:43:05.410Z,12.50
2023-03-30T18:45:34.084Z,12.50
2023-03-30T18:48:01.910Z,12.40
2023-03-30T18:50:32.113Z,12.40
2023-03-30T18:52:59.014Z,12.50
2023-03-30T18:55:28.165Z,12.50
2023-03-30T18:57:54.988Z,12.50
2023-03-30T19:00:23.172Z,12.50
2023-03-30T19:02:50.437Z,12.50
2023-03-30T19:05:22.962Z,12.50
2023-03-30T19:07:49.782Z,12.50
2023-03-30T19:10:20.529Z,12.40
2023-03-30T19:12:53.309Z,12.40
2023-03-30T19:15:22.166Z,12.40
2023-03-30T19:17:49.029Z,12.40
2023-03-30T19:20:16.413Z,12.50
2023-03-30T19:22:45.765Z,12.40
2023-03-30T19:25:18.380Z,12.50
2023-03-30T19:27:59.271Z,12.40
2023-03-30T19:30:32.298Z,12.40
2023-03-30T19:33:02.732Z,12.40
2023-03-30T19:35:29.908Z,12.40
2023-03-30T19:37:56.750Z,12.40
2023-03-30T19:40:23.700Z,12.30
2023-03-30T19:42:50.825Z,12.30
2023-03-30T19:45:18.721Z,12.30
2023-03-30T19:47:48.040Z,12.20
2023-03-30T19:50:17.811Z,12.20
2023-03-30T19:52:47.016Z,12.20
2023-03-30T19:55:13.974Z,12.20
2023-03-30T19:57:40.796Z,12.20
2023-03-30T20:00:12.719Z,12.10
2023-03-30T20:02:40.056Z,12.10
2023-03-30T20:05:10.142Z,12.00
2023-03-30T20:07:39.320Z,12.00
2023-03-30T20:10:06.778Z,11.90
2023-03-30T20:12:34.343Z,11.90
2023-03-30T20:15:01.190Z,11.80
2023-03-30T20:17:29.969Z,11.80
2023-03-30T20:19:58.077Z,11.80
2023-03-30T20:22:26.917Z,11.80
2023-03-30T20:24:53.771Z,11.80
2023-03-30T20:27:21.621Z,11.80
2023-03-30T20:29:50.884Z,11.80
2023-03-30T20:32:17.702Z,11.80
2023-03-30T20:34:45.853Z,11.70
2023-03-30T20:37:12.740Z,11.70
2023-03-30T20:39:42.005Z,11.70
2023-03-30T20:42:09.408Z,11.70
2023-03-30T20:44:39.454Z,11.70
2023-03-30T20:47:08.642Z,11.70
2023-03-30T20:49:37.871Z,11.70
2023-03-30T20:52:07.680Z,11.70
2023-03-30T20:54:37.643Z,11.70
2023-03-30T20:57:04.632Z,11.70
2023-03-30T20:59:33.885Z,11.60
2023-03-30T21:02:00.867Z,11.60
2023-03-30T21:04:27.895Z,11.60
2023-03-30T21:06:54.798Z,11.60
2023-03-30T21:13:16.854Z,11.70
2023-03-30T21:15:43.619Z,11.60
2023-03-30T21:18:10.471Z,11.70
2023-03-30T21:20:39.476Z,11.70
2023-03-30T21:23:06.285Z,11.60
2023-03-30T21:25:32.966Z,11.60
2023-03-30T21:28:01.811Z,11.60
2023-03-30T21:30:28.935Z,11.60
2023-03-30T21:32:55.859Z,11.60
2023-03-30T21:35:25.115Z,11.60
2023-03-30T21:37:51.892Z,11.60
2023-03-30T21:40:18.608Z,11.60
2023-03-30T21:42:53.267Z,11.60
2023-03-30T21:45:23.178Z,11.60
2023-03-30T21:47:56.563Z,11.60
2023-03-30T21:50:26.268Z,11.60
2023-03-30T21:53:00.267Z,11.50
2023-03-30T21:55:35.303Z,11.50
2023-03-30T21:58:10.078Z,11.50
2023-03-30T22:00:42.187Z,11.50
2023-03-30T22:03:13.333Z,11.50
2023-03-30T22:05:42.174Z,11.50
2023-03-30T22:08:12.340Z,11.50
2023-03-30T22:10:42.272Z,11.50
2023-03-30T22:13:09.907Z,11.50
2023-03-30T22:15:37.363Z,11.50
2023-03-30T22:18:07.270Z,11.50
2023-03-30T22:20:36.779Z,11.40
2023-03-30T22:23:12.939Z,11.50
2023-03-30T22:25:42.428Z,11.50
2023-03-30T22:28:12.052Z,11.50
2023-03-30T22:30:51.656Z,11.40
2023-03-30T22:33:21.306Z,11.40
2023-03-30T22:35:48.877Z,11.40
2023-03-30T22:38:16.688Z,11.40
2023-03-30T22:40:43.840Z,11.40
2023-03-30T22:43:14.065Z,11.40
2023-03-30T22:45:43.310Z,11.40
2023-03-30T22:48:13.169Z,11.40
2023-03-30T22:50:45.841Z,11.40
2023-03-30T22:56:10.157Z,11.40
2023-03-30T22:58:37.369Z,11.40
2023-03-30T23:01:07.276Z,11.40
2023-03-30T23:03:34.638Z,11.40
2023-03-30T23:06:02.344Z,11.40
2023-03-30T23:08:33.193Z,11.40
2023-03-30T23:11:22.728Z,11.40
2023-03-30T23:13:58.610Z,11.40
2023-03-30T23:16:33.472Z,11.30
2023-03-30T23:19:01.516Z,11.40
2023-03-30T23:21:37.306Z,11.30
2023-03-30T23:24:11.175Z,11.30
2023-03-30T23:26:46.402Z,11.40
2023-03-30T23:29:21.834Z,11.40
2023-03-30T23:31:57.412Z,11.40
2023-03-30T23:34:24.596Z,11.40
2023-03-30T23:36:53.156Z,11.30
2023-03-30T23:39:24.090Z,11.40
2023-03-30T23:41:51.274Z,11.30
2023-03-30T23:44:18.534Z,11.30
2023-03-30T23:46:45.711Z,11.30
2023-03-30T23:49:20.541Z,11.30
2023-03-30T23:51:54.878Z,11.30
2023-03-30T23:54:26.830Z,11.30
2023-03-30T23:57:09.028Z,11.30
2023-03-30T23:59:39.879Z,11.30
